Terminal Aerodrome Forecast
Issued by NWS

Home | Current Version | Previous Version | Text Only | Print | Product List | Glossary On
Versions: 1 2 3 4 5 6 7 8 9 10 11 12 13 14
000
FTUS41 KCAR 232300
TAFBHB
TAF
KBHB 232334Z 2400/2424 36007KT P6SM -SHRA VCTS BKN015 OVC050CB
     FM240200 34012KT 3SM -RA BR OVC012
     FM240800 33014KT P6SM OVC015
     FM241200 33016G26KT P6SM OVC025
     FM241900 34019G29KT P6SM SCT020 OVC035
      AMD LTD TO CLD VIS AND WIND=

USA.gov is the U.S. government's official web portal to all federal, state and local government web resources and services.